Terminal Aerodrome Forecast
Issued by NWS Wilmington, OH

Current Version | Previous Version | Graphics & Text | Print | Product List | Glossary On
Versions: 1 2 3 4 5 6 7 8 9 10 11 12 13 14 15 16 17 18 19 20 21 22 23 24 25 26 27 28 29 30 31 32 33
266
FTUS41 KILN 010211 AAF
TAFILN
TAF AMD
KILN 010211Z 0102/0124 18013G21KT P6SM VCSH BKN120 WS020/18040KT
     FM010700 18015G21KT P6SM VCTS OVC080CB
     FM010800 18014G20KT 3SM -TSRA OVC060CB WS020/19050KT
     FM011200 21013KT P6SM VCSH OVC045
     FM011400 21016G25KT P6SM BKN090
     FM011900 22022G32KT P6SM BKN050=

USA.gov is the U.S. government's official web portal to all federal, state and local government web resources and services.